Time;durP1;ratioP1;P1;durP2;ratioP2;P2;SDS_P1;SDS_P2;PMS_P1;PMS_P2;Temp;Humidity;BMP_temperature;BMP_pressure;BME280_temperature;BME280_humidity;BME280_pressure;Samples;Min_cycle;Max_cycle;Signal;HPM_P1;HPM_P2
2023/09/19 00:02:06;;;;;;;5.60;0.70;;;16.20;99.90;;;;;;5049281;28;20500;-71
2023/09/19 00:04:32;;;;;;;1.00;0.83;;;16.30;99.90;;;;;;5047640;28;20444;-71
2023/09/19 00:06:58;;;;;;;1.23;0.77;;;16.20;99.90;;;;;;5047802;28;20433;-72
2023/09/19 00:09:27;;;;;;;1.77;1.00;;;16.20;99.90;;;;;;5047648;28;20430;-71
2023/09/19 00:11:53;;;;;;;6.50;0.90;;;16.10;99.90;;;;;;5031410;28;20514;-71
2023/09/19 00:14:19;;;;;;;1.67;0.70;;;16.20;99.90;;;;;;5047556;28;20478;-71
2023/09/19 00:16:46;;;;;;;1.20;0.70;;;16.20;99.90;;;;;;5047388;28;20498;-72
2023/09/19 00:19:13;;;;;;;1.00;0.60;;;16.30;99.90;;;;;;5047796;28;20889;-71
2023/09/19 00:21:40;;;;;;;1.03;0.70;;;16.30;99.90;;;;;;5014739;28;20424;-71
2023/09/19 00:24:07;;;;;;;1.60;0.70;;;16.40;99.90;;;;;;5048573;28;20451;-71
2023/09/19 00:26:34;;;;;;;1.87;0.70;;;16.50;99.90;;;;;;5048599;28;20425;-71
2023/09/19 00:29:05;;;;;;;2.90;1.03;;;16.50;99.90;;;;;;5048488;28;21012;-71
2023/09/19 00:31:31;;;;;;;1.10;0.70;;;16.40;99.90;;;;;;5031195;28;20439;-71
2023/09/19 00:34:02;;;;;;;1.97;0.67;;;16.40;99.90;;;;;;5048250;28;20439;-71
2023/09/19 00:36:29;;;;;;;1.50;0.67;;;16.40;99.90;;;;;;5048836;28;20460;-71
2023/09/19 00:38:54;;;;;;;1.03;0.70;;;16.60;99.90;;;;;;5049095;28;20415;-71
2023/09/19 00:41:21;;;;;;;0.80;0.60;;;16.60;99.90;;;;;;5048775;28;21022;-71
2023/09/19 00:43:47;;;;;;;1.37;0.77;;;16.70;99.90;;;;;;5050911;28;20193;-71
2023/09/19 00:46:17;;;;;;;1.23;0.80;;;16.60;99.90;;;;;;5034731;28;20430;-71
2023/09/19 00:48:46;;;;;;;2.20;0.70;;;16.70;99.90;;;;;;5052496;28;20416;-71
2023/09/19 00:51:13;;;;;;;0.90;0.50;;;16.60;99.90;;;;;;5052354;28;20906;-70
2023/09/19 00:53:42;;;;;;;1.30;0.70;;;16.70;99.90;;;;;;5034455;28;20833;-70
2023/09/19 00:56:07;;;;;;;1.30;0.70;;;16.70;99.90;;;;;;5052131;28;20522;-71
2023/09/19 00:58:35;;;;;;;1.10;0.67;;;16.70;99.90;;;;;;5052326;28;21000;-71
2023/09/19 01:01:01;;;;;;;1.80;0.70;;;16.70;99.90;;;;;;5051015;28;20177;-71
2023/09/19 01:03:28;;;;;;;1.83;0.60;;;16.60;99.90;;;;;;5050619;28;20948;-70
2023/09/19 01:05:54;;;;;;;1.00;0.60;;;16.70;99.90;;;;;;5050660;28;20526;-70
2023/09/19 01:08:19;;;;;;;1.10;0.80;;;16.70;99.90;;;;;;5051957;28;20790;-70
2023/09/19 01:11:15;;;;;;;4.30;0.70;;;16.80;99.90;;;;;;5051969;28;20431;-71
2023/09/19 01:13:57;;;;;;;1.73;1.00;;;16.80;99.90;;;;;;5050834;28;20210;-71
2023/09/19 01:16:35;;;;;;;1.70;0.70;;;16.80;99.90;;;;;;5051952;28;20533;-71
2023/09/19 01:19:19;;;;;;;1.83;0.60;;;16.80;99.90;;;;;;5051977;28;20431;-71
2023/09/19 01:21:54;;;;;;;1.30;0.67;;;16.80;99.90;;;;;;5051901;28;20415;-70
2023/09/19 01:25:05;;;;;;;1.53;0.70;;;16.80;99.90;;;;;;5051945;28;20804;-70
2023/09/19 01:27:58;;;;;;;2.50;0.63;;;16.80;99.90;;;;;;5051785;28;20830;-71
2023/09/19 01:30:29;;;;;;;1.10;0.60;;;16.80;99.90;;;;;;5051551;28;20471;-71
2023/09/19 01:32:57;;;;;;;1.73;0.67;;;16.80;99.90;;;;;;5051382;28;20469;-71
2023/09/19 01:35:22;;;;;;;1.20;0.60;;;16.90;99.90;;;;;;5051380;28;20438;-71
2023/09/19 01:37:48;;;;;;;1.07;0.80;;;16.80;99.90;;;;;;5051264;28;20472;-71
2023/09/19 01:40:17;;;;;;;2.70;1.13;;;16.90;99.90;;;;;;5051463;28;20185;-70
2023/09/19 01:43:11;;;;;;;2.63;0.70;;;16.90;99.90;;;;;;5049953;28;20516;-70
2023/09/19 01:45:42;;;;;;;1.30;0.90;;;16.90;99.90;;;;;;5051323;28;20413;-71
2023/09/19 01:48:32;;;;;;;3.37;0.77;;;16.90;99.90;;;;;;5051211;28;20441;-70
2023/09/19 01:51:02;;;;;;;1.03;0.90;;;16.90;99.90;;;;;;5051220;28;20495;-71
2023/09/19 01:53:36;;;;;;;1.40;0.70;;;16.90;99.90;;;;;;5051043;28;20416;-70
2023/09/19 01:56:05;;;;;;;2.03;1.23;;;16.90;99.90;;;;;;5050878;28;20544;-70
2023/09/19 01:58:37;;;;;;;1.27;1.00;;;16.90;99.90;;;;;;5050709;28;20434;-70
2023/09/19 02:01:08;;;;;;;4.80;0.60;;;16.90;99.90;;;;;;5050665;28;20410;-70
2023/09/19 02:03:36;;;;;;;2.13;0.77;;;16.70;99.90;;;;;;5049244;28;20447;-71
2023/09/19 02:06:03;;;;;;;1.10;0.80;;;16.80;99.90;;;;;;5033057;28;20421;-70
2023/09/19 02:08:33;;;;;;;2.63;0.60;;;16.70;99.90;;;;;;5051284;28;20506;-71
2023/09/19 02:10:59;;;;;;;2.50;0.73;;;16.80;99.90;;;;;;5050751;28;20425;-71
2023/09/19 02:13:27;;;;;;;1.20;0.73;;;16.80;99.90;;;;;;5049165;28;20484;-71
2023/09/19 02:15:53;;;;;;;1.00;0.90;;;16.80;99.90;;;;;;5050502;28;20506;-71
2023/09/19 02:18:19;;;;;;;1.10;0.80;;;16.80;99.90;;;;;;5050664;28;20643;-71
2023/09/19 02:20:45;;;;;;;3.70;0.90;;;16.80;99.90;;;;;;5050600;28;20564;-71
2023/09/19 02:23:12;;;;;;;1.77;0.80;;;17.00;99.90;;;;;;5050476;28;20423;-71
2023/09/19 02:25:40;;;;;;;4.03;0.90;;;16.90;99.90;;;;;;5050169;28;20454;-73
2023/09/19 02:28:06;;;;;;;1.63;1.13;;;16.90;99.90;;;;;;5048790;28;20848;-71
2023/09/19 02:30:32;;;;;;;2.50;1.17;;;17.00;99.90;;;;;;5049960;28;20502;-71
2023/09/19 02:33:01;;;;;;;2.13;1.17;;;17.00;99.90;;;;;;5049900;28;20455;-71
2023/09/19 02:35:27;;;;;;;1.30;1.07;;;16.90;99.90;;;;;;5032015;28;20436;-71
2023/09/19 02:37:53;;;;;;;2.27;1.03;;;16.90;99.90;;;;;;5032216;28;20538;-71
2023/09/19 02:40:19;;;;;;;1.10;0.80;;;16.90;99.90;;;;;;5050137;28;20411;-71
2023/09/19 02:42:49;;;;;;;4.20;1.53;;;16.90;99.90;;;;;;5049869;28;20441;-71
2023/09/19 02:45:18;;;;;;;2.70;1.03;;;16.90;99.90;;;;;;5050090;28;20291;-71
2023/09/19 02:47:45;;;;;;;1.67;0.80;;;17.00;99.90;;;;;;5050056;28;20442;-71
2023/09/19 02:50:11;;;;;;;2.80;1.20;;;16.90;99.90;;;;;;5050009;28;20447;-70
2023/09/19 02:52:37;;;;;;;5.20;1.10;;;16.80;99.90;;;;;;5049906;28;20512;-71
2023/09/19 02:55:05;;;;;;;3.10;0.90;;;16.80;99.90;;;;;;5049788;28;20456;-71
2023/09/19 02:57:33;;;;;;;3.47;1.30;;;16.80;99.90;;;;;;5048214;28;20477;-71
2023/09/19 03:00:00;;;;;;;1.33;0.90;;;16.80;99.90;;;;;;5049839;28;20421;-71
2023/09/19 03:02:27;;;;;;;3.93;0.93;;;16.80;99.90;;;;;;5049892;28;20421;-71
2023/09/19 03:04:53;;;;;;;2.13;1.10;;;16.80;99.90;;;;;;5049760;28;20812;-71
2023/09/19 03:07:19;;;;;;;1.70;0.97;;;16.80;99.90;;;;;;5049376;28;20486;-71
2023/09/19 03:09:45;;;;;;;1.33;1.23;;;16.80;99.90;;;;;;5048404;28;20426;-71
2023/09/19 03:12:11;;;;;;;2.17;1.17;;;16.80;99.90;;;;;;5048155;28;20302;-71
2023/09/19 03:14:37;;;;;;;3.17;1.30;;;16.80;99.90;;;;;;5048393;28;20767;-71
2023/09/19 03:17:05;;;;;;;2.47;1.20;;;16.80;99.90;;;;;;5049637;28;20552;-71
2023/09/19 03:19:33;;;;;;;1.80;1.10;;;16.80;99.90;;;;;;5049540;28;20635;-71
2023/09/19 03:21:59;;;;;;;2.03;0.80;;;16.90;99.90;;;;;;5048044;28;20499;-72
2023/09/19 03:24:26;;;;;;;1.87;0.80;;;16.90;99.90;;;;;;5049811;28;20817;-71
2023/09/19 03:26:52;;;;;;;1.00;0.90;;;16.90;99.90;;;;;;5049422;28;20462;-71
2023/09/19 03:29:18;;;;;;;2.50;1.20;;;17.00;99.90;;;;;;5049395;28;20453;-71
2023/09/19 03:31:43;;;;;;;3.57;1.10;;;17.00;99.90;;;;;;5048067;28;20447;-71
2023/09/19 03:34:09;;;;;;;2.10;0.90;;;17.00;99.90;;;;;;5049264;28;20503;-71
2023/09/19 03:36:35;;;;;;;3.73;1.23;;;17.10;99.90;;;;;;5049314;28;20207;-71
2023/09/19 03:39:04;;;;;;;1.60;1.10;;;17.10;99.90;;;;;;5049325;28;20664;-71
2023/09/19 03:41:31;;;;;;;1.00;0.70;;;17.10;99.90;;;;;;5049481;28;20413;-71
2023/09/19 03:43:56;;;;;;;2.37;1.30;;;17.10;99.90;;;;;;5049162;28;20435;-71
2023/09/19 03:46:22;;;;;;;1.67;1.00;;;17.20;99.90;;;;;;5049285;28;20968;-71
2023/09/19 03:48:48;;;;;;;1.33;0.90;;;17.20;99.90;;;;;;5049170;28;20202;-71
2023/09/19 03:51:13;;;;;;;2.90;1.20;;;17.10;99.90;;;;;;5048119;28;20778;-71
2023/09/19 03:53:39;;;;;;;2.90;1.00;;;17.20;99.90;;;;;;5049184;28;20207;-71
2023/09/19 03:56:05;;;;;;;1.57;1.00;;;17.20;99.90;;;;;;5031031;28;20213;-72
2023/09/19 03:58:30;;;;;;;1.90;0.83;;;17.10;99.90;;;;;;5047822;28;20178;-71
2023/09/19 04:00:57;;;;;;;1.00;0.80;;;17.20;99.90;;;;;;5047614;28;20183;-71
2023/09/19 04:03:24;;;;;;;3.13;1.30;;;17.20;99.90;;;;;;5047789;28;20183;-71
2023/09/19 04:05:50;;;;;;;1.10;0.80;;;17.10;99.90;;;;;;5049068;28;20973;-71
2023/09/19 04:08:16;;;;;;;2.37;1.00;;;17.10;99.90;;;;;;5047666;28;21136;-71
2023/09/19 04:10:43;;;;;;;3.33;1.00;;;17.00;99.90;;;;;;5048993;28;20420;-71
2023/09/19 04:13:09;;;;;;;1.70;0.93;;;17.00;99.90;;;;;;5049105;28;20179;-71
2023/09/19 04:15:34;;;;;;;1.40;1.00;;;16.90;99.90;;;;;;5048888;28;20553;-71
2023/09/19 04:18:00;;;;;;;1.10;0.83;;;16.80;99.90;;;;;;5050222;28;20242;-71
2023/09/19 04:20:25;;;;;;;1.77;1.03;;;16.80;99.90;;;;;;5053058;28;20182;-72
2023/09/19 04:22:51;;;;;;;3.43;1.37;;;16.70;99.90;;;;;;5051574;28;20272;-72
2023/09/19 04:25:18;;;;;;;2.43;1.10;;;16.60;99.90;;;;;;5052520;28;20572;-72
2023/09/19 04:27:44;;;;;;;3.63;1.20;;;16.60;99.90;;;;;;5051060;28;20435;-72
2023/09/19 04:30:11;;;;;;;2.77;1.13;;;16.40;99.90;;;;;;5051119;28;20418;-72
2023/09/19 04:32:40;;;;;;;1.87;1.07;;;16.30;99.90;;;;;;5050931;28;20193;-72
2023/09/19 04:35:08;;;;;;;2.17;1.10;;;16.30;99.90;;;;;;5051215;28;20962;-72
2023/09/19 04:37:39;;;;;;;1.73;1.00;;;16.30;99.90;;;;;;5049430;28;20475;-73
2023/09/19 04:40:06;;;;;;;1.60;0.93;;;16.20;99.90;;;;;;5051182;28;21229;-72
2023/09/19 04:42:32;;;;;;;4.00;1.10;;;16.20;99.90;;;;;;5051133;28;20419;-72
2023/09/19 04:44:59;;;;;;;1.43;0.93;;;16.10;99.90;;;;;;5050985;28;20832;-72
2023/09/19 04:47:26;;;;;;;1.40;1.00;;;16.10;99.90;;;;;;5050934;28;20188;-73
2023/09/19 04:49:51;;;;;;;4.03;0.80;;;16.10;99.90;;;;;;5033027;28;20427;-72
2023/09/19 04:52:17;;;;;;;1.20;0.90;;;16.10;99.90;;;;;;5049604;28;20418;-73
2023/09/19 04:54:42;;;;;;;1.30;0.83;;;16.00;99.90;;;;;;5049539;28;20725;-72
2023/09/19 04:57:08;;;;;;;2.50;1.00;;;16.10;99.90;;;;;;5049339;28;20219;-72
2023/09/19 04:59:34;;;;;;;2.17;0.90;;;16.00;99.90;;;;;;5050988;28;20252;-72
2023/09/19 05:01:59;;;;;;;3.30;1.10;;;16.00;99.90;;;;;;5050831;28;20218;-71
2023/09/19 05:04:25;;;;;;;1.67;1.00;;;16.00;99.90;;;;;;5049200;28;20586;-71
2023/09/19 05:06:51;;;;;;;2.00;0.90;;;15.80;99.90;;;;;;5050872;28;20849;-72
2023/09/19 05:09:19;;;;;;;1.33;1.03;;;15.80;99.90;;;;;;5050801;28;20176;-72
2023/09/19 05:11:46;;;;;;;1.20;1.00;;;15.80;99.90;;;;;;5050733;28;20184;-71
2023/09/19 05:14:11;;;;;;;2.30;1.47;;;15.90;99.90;;;;;;5049324;28;21022;-72
2023/09/19 05:16:37;;;;;;;3.17;1.07;;;15.90;99.90;;;;;;5032483;28;20490;-71
2023/09/19 05:19:03;;;;;;;1.53;1.00;;;15.90;99.90;;;;;;5049294;28;20292;-72
2023/09/19 05:21:30;;;;;;;2.13;0.93;;;16.00;99.90;;;;;;5049267;28;20173;-72
2023/09/19 05:23:56;;;;;;;1.53;0.90;;;16.10;99.90;;;;;;5050315;28;20627;-72
2023/09/19 05:26:22;;;;;;;1.20;0.70;;;16.10;99.90;;;;;;5048733;28;20420;-72
2023/09/19 05:28:48;;;;;;;1.57;1.10;;;16.10;99.90;;;;;;5049389;28;20271;-71
2023/09/19 05:31:14;;;;;;;2.37;1.30;;;16.00;99.90;;;;;;5049920;28;20495;-72
2023/09/19 05:33:39;;;;;;;2.70;0.80;;;16.20;99.90;;;;;;5049897;28;20715;-71
2023/09/19 05:36:05;;;;;;;3.20;0.83;;;16.20;99.90;;;;;;5048277;28;20467;-71
2023/09/19 05:38:32;;;;;;;1.00;0.80;;;16.30;99.90;;;;;;5049921;28;20179;-71
2023/09/19 05:40:58;;;;;;;2.07;1.13;;;16.30;99.90;;;;;;5049692;28;20998;-71
2023/09/19 05:43:24;;;;;;;3.40;0.90;;;16.40;99.90;;;;;;5049711;28;20498;-70
2023/09/19 05:45:51;;;;;;;2.20;0.87;;;16.40;99.90;;;;;;5048091;28;20180;-70
2023/09/19 05:48:17;;;;;;;2.03;1.00;;;16.50;99.90;;;;;;5047871;28;21233;-72
2023/09/19 05:50:46;;;;;;;1.43;0.90;;;16.60;99.90;;;;;;5031379;28;20429;-72
2023/09/19 05:53:14;;;;;;;0.90;0.70;;;16.60;99.90;;;;;;5048059;28;20249;-72
2023/09/19 05:55:40;;;;;;;1.43;0.80;;;16.70;99.90;;;;;;5048349;28;20456;-72
2023/09/19 05:58:05;;;;;;;1.43;0.80;;;16.80;99.90;;;;;;5049527;28;20976;-71
2023/09/19 06:00:31;;;;;;;5.23;1.30;;;16.80;99.90;;;;;;5048151;28;21104;-72
2023/09/19 06:02:59;;;;;;;1.37;0.63;;;16.90;99.90;;;;;;5049819;28;20220;-71
2023/09/19 06:05:30;;;;;;;2.70;1.00;;;17.00;99.90;;;;;;5048533;28;20718;-71
2023/09/19 06:07:58;;;;;;;3.60;0.90;;;17.00;99.90;;;;;;5050030;28;20479;-71
2023/09/19 06:10:25;;;;;;;3.03;0.80;;;17.10;99.90;;;;;;5048883;28;20465;-71
2023/09/19 06:12:51;;;;;;;1.10;1.00;;;17.10;99.90;;;;;;5049900;28;20434;-71
2023/09/19 06:15:18;;;;;;;7.57;1.17;;;17.10;99.90;;;;;;5049721;28;20447;-71
2023/09/19 06:17:55;;;;;;;2.67;0.90;;;17.10;99.90;;;;;;5049599;28;20879;-71
2023/09/19 06:20:22;;;;;;;2.07;0.80;;;17.10;99.90;;;;;;5049652;28;20530;-71
2023/09/19 06:22:48;;;;;;;2.20;1.00;;;17.10;99.90;;;;;;5048274;28;20415;-71
2023/09/19 06:25:19;;;;;;;2.63;0.93;;;17.10;99.90;;;;;;5049285;28;20472;-71
2023/09/19 06:27:45;;;;;;;2.33;0.90;;;17.10;99.90;;;;;;5049297;28;20472;-71
2023/09/19 06:30:14;;;;;;;1.10;0.80;;;17.20;99.90;;;;;;5049202;28;20834;-71
2023/09/19 06:32:43;;;;;;;2.13;0.70;;;17.30;99.90;;;;;;5049398;28;20969;-70
2023/09/19 06:35:11;;;;;;;1.67;0.83;;;17.20;99.90;;;;;;5047559;28;20448;-70
2023/09/19 06:37:40;;;;;;;2.33;0.93;;;17.10;99.90;;;;;;5049035;28;20472;-72
2023/09/19 06:40:14;;;;;;;1.40;1.00;;;17.10;99.90;;;;;;5048337;28;20799;-72
2023/09/19 06:42:50;;;;;;;4.33;1.20;;;17.10;99.90;;;;;;5049154;28;20421;-71
2023/09/19 06:45:18;;;;;;;3.67;1.30;;;17.00;99.90;;;;;;5047072;28;20439;-71
2023/09/19 06:47:51;;;;;;;3.77;1.33;;;17.00;99.90;;;;;;5047348;28;20420;-72
2023/09/19 06:50:19;;;;;;;2.50;0.93;;;17.00;99.90;;;;;;5048069;28;20416;-71
2023/09/19 06:52:46;;;;;;;1.87;0.90;;;17.10;99.90;;;;;;5048296;28;20505;-71
2023/09/19 06:55:13;;;;;;;2.00;1.20;;;17.10;99.90;;;;;;5048181;28;20439;-71
2023/09/19 06:57:40;;;;;;;11.77;1.17;;;17.10;99.90;;;;;;5046792;28;20472;-72
2023/09/19 07:00:15;;;;;;;1.40;0.90;;;17.10;99.90;;;;;;5047919;28;20444;-71
2023/09/19 07:02:41;;;;;;;2.50;0.97;;;17.20;99.90;;;;;;5047907;28;20917;-72
2023/09/19 07:05:07;;;;;;;1.20;0.90;;;17.20;99.90;;;;;;5046132;28;20456;-71
2023/09/19 07:07:34;;;;;;;0.90;0.60;;;17.20;99.90;;;;;;5046483;28;20450;-72
2023/09/19 07:10:01;;;;;;;1.07;0.87;;;17.30;99.90;;;;;;5046434;28;20594;-72
2023/09/19 07:12:26;;;;;;;2.33;0.90;;;17.30;99.90;;;;;;5047560;28;20429;-72
2023/09/19 07:14:52;;;;;;;1.50;0.90;;;17.30;99.90;;;;;;5029564;28;20784;-71
2023/09/19 07:17:18;;;;;;;2.80;0.83;;;17.30;99.90;;;;;;5012775;28;20302;-71
2023/09/19 07:19:45;;;;;;;2.40;0.70;;;17.40;99.90;;;;;;5029626;28;20655;-71
2023/09/19 07:22:10;;;;;;;1.33;1.03;;;17.40;99.90;;;;;;5047413;28;20472;-71
2023/09/19 07:24:37;;;;;;;1.50;0.70;;;17.50;99.90;;;;;;5047356;28;20451;-71
2023/09/19 07:27:05;;;;;;;1.57;1.10;;;17.50;99.90;;;;;;5047295;28;20217;-71
2023/09/19 07:29:30;;;;;;;3.73;0.90;;;17.50;99.90;;;;;;5045728;28;20499;-71
2023/09/19 07:31:56;;;;;;;4.80;0.80;;;17.50;99.90;;;;;;5047175;28;20775;-71
2023/09/19 07:34:23;;;;;;;1.33;0.90;;;17.50;99.90;;;;;;5047091;28;20213;-71
2023/09/19 07:36:48;;;;;;;1.23;0.80;;;17.50;99.90;;;;;;5047168;28;20256;-71
2023/09/19 07:39:14;;;;;;;2.03;0.70;;;17.60;99.90;;;;;;5045460;28;20422;-71
2023/09/19 07:41:40;;;;;;;2.87;1.03;;;17.70;99.90;;;;;;5045532;28;20192;-71
2023/09/19 07:44:05;;;;;;;3.10;1.00;;;17.80;99.90;;;;;;5046957;28;20277;-71
2023/09/19 07:46:31;;;;;;;1.50;1.03;;;17.70;99.90;;;;;;5047249;28;20595;-71
2023/09/19 07:48:57;;;;;;;6.80;1.30;;;17.80;99.90;;;;;;5045835;28;20193;-71
2023/09/19 07:51:23;;;;;;;2.33;0.93;;;17.80;99.90;;;;;;5046897;28;20194;-71
2023/09/19 07:53:48;;;;;;;2.60;1.10;;;17.80;99.90;;;;;;5046866;28;20495;-71
2023/09/19 07:56:15;;;;;;;2.30;1.13;;;17.80;99.90;;;;;;5046983;28;20219;-70
2023/09/19 07:58:43;;;;;;;2.07;1.00;;;17.90;99.90;;;;;;5047141;28;20180;-71
2023/09/19 08:01:10;;;;;;;3.07;1.40;;;18.00;99.90;;;;;;5045731;28;20431;-71
2023/09/19 08:03:40;;;;;;;1.73;1.10;;;18.10;99.90;;;;;;5045370;28;20483;-71
2023/09/19 08:06:07;;;;;;;2.60;0.93;;;18.20;99.90;;;;;;5047074;28;20421;-71
2023/09/19 08:08:37;;;;;;;2.07;0.90;;;18.30;99.90;;;;;;5046747;28;20989;-71
2023/09/19 08:11:11;;;;;;;2.20;1.40;;;18.30;99.90;;;;;;5045432;28;20433;-71
2023/09/19 08:13:37;;;;;;;4.03;1.20;;;18.30;99.90;;;;;;5046710;28;20944;-71
2023/09/19 08:16:04;;;;;;;1.40;0.87;;;18.40;99.90;;;;;;5045065;28;20516;-71
2023/09/19 08:18:30;;;;;;;2.47;1.30;;;18.40;99.90;;;;;;5045326;28;20427;-71
2023/09/19 08:20:58;;;;;;;3.00;1.30;;;18.50;99.90;;;;;;5045226;28;20452;-71
2023/09/19 08:23:24;;;;;;;1.77;0.87;;;18.50;99.90;;;;;;5045191;28;20186;-71
2023/09/19 08:25:50;;;;;;;1.10;0.90;;;18.60;99.90;;;;;;5045135;28;20422;-71
2023/09/19 08:28:19;;;;;;;2.57;1.03;;;18.60;99.90;;;;;;5045290;28;20189;-71
2023/09/19 08:30:45;;;;;;;2.03;1.20;;;18.60;99.90;;;;;;5045077;28;20190;-71
2023/09/19 08:33:11;;;;;;;1.73;1.50;;;18.80;99.90;;;;;;5046484;28;20483;-71
2023/09/19 08:35:39;;;;;;;2.50;1.00;;;18.70;99.90;;;;;;5045213;28;20509;-70
2023/09/19 08:38:06;;;;;;;1.30;0.90;;;18.80;99.90;;;;;;5046686;28;20218;-70
2023/09/19 08:40:33;;;;;;;2.40;1.10;;;18.90;99.90;;;;;;5044880;28;20439;-71
2023/09/19 08:43:00;;;;;;;1.20;0.93;;;18.80;99.90;;;;;;5046432;28;20425;-71
2023/09/19 08:45:28;;;;;;;1.00;0.87;;;18.90;99.90;;;;;;5045053;28;20434;-71
2023/09/19 08:48:09;;;;;;;3.00;1.10;;;19.00;99.90;;;;;;5045104;28;20417;-70
2023/09/19 08:50:43;;;;;;;5.90;1.73;;;19.10;99.90;;;;;;5046278;28;20421;-70
2023/09/19 08:53:20;;;;;;;3.10;1.30;;;19.30;99.90;;;;;;5044669;28;20428;-71
2023/09/19 08:55:48;;;;;;;3.43;1.13;;;19.30;99.90;;;;;;5046171;28;20433;-70
2023/09/19 08:58:21;;;;;;;3.63;1.00;;;19.20;99.90;;;;;;5044816;28;20475;-70
2023/09/19 09:00:50;;;;;;;3.40;0.90;;;19.00;99.90;;;;;;5046408;28;20410;-70
2023/09/19 09:03:19;;;;;;;1.10;0.90;;;19.10;99.90;;;;;;5046396;28;20905;-71
2023/09/19 09:05:46;;;;;;;2.30;0.90;;;19.20;99.90;;;;;;5050060;28;20419;-70
2023/09/19 09:08:13;;;;;;;2.10;1.10;;;19.10;99.90;;;;;;5048638;28;20436;-71
2023/09/19 09:10:40;;;;;;;2.37;1.20;;;19.20;99.90;;;;;;5049777;28;20416;-73
2023/09/19 09:13:06;;;;;;;1.40;0.90;;;19.20;99.90;;;;;;5049921;28;20454;-73
2023/09/19 09:15:36;;;;;;;1.73;1.30;;;19.30;99.90;;;;;;5049806;28;20445;-73
2023/09/19 09:18:04;;;;;;;6.63;0.90;;;19.40;99.90;;;;;;5050020;28;20524;-72
2023/09/19 09:20:30;;;;;;;2.90;0.90;;;19.50;99.90;;;;;;5049795;28;20929;-73
2023/09/19 09:23:03;;;;;;;2.20;0.93;;;19.70;99.90;;;;;;5050005;28;20422;-72
2023/09/19 09:26:09;;;;;;;2.30;1.07;;;20.00;99.90;;;;;;5050047;28;20218;-72
2023/09/19 09:28:38;;;;;;;1.67;1.00;;;20.30;99.90;;;;;;5030480;28;20526;-72
2023/09/19 09:31:09;;;;;;;2.00;1.20;;;20.00;99.90;;;;;;5030608;28;20999;-71
2023/09/19 09:33:35;;;;;;;3.90;1.30;;;19.80;99.90;;;;;;5048676;28;20457;-72
2023/09/19 09:36:03;;;;;;;1.90;1.23;;;19.70;99.90;;;;;;5048536;28;20426;-72
2023/09/19 09:38:48;;;;;;;3.40;1.67;;;19.40;99.90;;;;;;5050129;28;20943;-71
2023/09/19 09:41:27;;;;;;;1.30;1.10;;;19.20;99.90;;;;;;5050210;28;20443;-70
2023/09/19 09:43:53;;;;;;;4.17;1.30;;;19.40;99.90;;;;;;5049897;28;20438;-71
2023/09/19 09:51:42;;;;;;;3.93;1.53;;;20.50;99.90;;;;;;5049892;28;20410;-71
2023/09/19 09:54:20;;;;;;;1.27;1.17;;;21.20;99.90;;;;;;5049900;28;20448;-71
2023/09/19 09:57:00;;;;;;;4.50;0.93;;;21.70;99.90;;;;;;5049697;28;20473;-71
2023/09/19 09:59:59;;;;;;;2.60;1.10;;;22.00;99.90;;;;;;5048304;28;20456;-71
2023/09/19 10:02:29;;;;;;;9.40;1.30;;;22.50;99.90;;;;;;5049741;28;20417;-72
2023/09/19 10:05:13;;;;;;;2.50;0.90;;;22.90;99.90;;;;;;5048227;28;20430;-71
2023/09/19 10:07:49;;;;;;;1.40;0.90;;;23.10;99.90;;;;;;5049739;28;20423;-74
2023/09/19 10:10:28;;;;;;;1.97;1.10;;;23.20;99.90;;;;;;5049522;28;20439;-73
2023/09/19 10:13:02;;;;;;;2.13;0.90;;;23.90;99.90;;;;;;5049501;28;20448;-73
2023/09/19 10:15:32;;;;;;;3.33;0.90;;;24.00;99.90;;;;;;5049390;28;20529;-73
2023/09/19 10:18:01;;;;;;;1.00;0.83;;;24.40;99.90;;;;;;5049370;28;20507;-73
2023/09/19 10:20:36;;;;;;;1.87;0.90;;;24.30;99.90;;;;;;5047695;28;20427;-73
2023/09/19 10:23:11;;;;;;;3.43;1.07;;;24.10;99.90;;;;;;5048040;28;20430;-73
2023/09/19 10:25:42;;;;;;;5.33;1.10;;;23.50;99.90;;;;;;5049288;28;20433;-73
2023/09/19 10:28:10;;;;;;;2.23;1.30;;;22.80;99.90;;;;;;5049429;28;21239;-73
2023/09/19 10:30:49;;;;;;;1.83;1.00;;;22.90;99.90;;;;;;5047827;28;20422;-72
2023/09/19 10:33:20;;;;;;;1.40;1.10;;;22.50;99.90;;;;;;5049213;28;20492;-73
2023/09/19 10:35:47;;;;;;;5.57;1.47;;;22.10;99.90;;;;;;5049348;28;20454;-73
2023/09/19 10:38:35;;;;;;;3.00;1.60;;;21.80;99.90;;;;;;5049026;28;20470;-72
2023/09/19 10:41:02;;;;;;;4.90;1.10;;;21.90;99.90;;;;;;5049076;28;20508;-73
2023/09/19 10:43:33;;;;;;;1.30;1.00;;;22.30;99.90;;;;;;5047550;28;20417;-72
2023/09/19 10:46:05;;;;;;;6.10;1.40;;;23.40;99.90;;;;;;5048854;28;20424;-72
2023/09/19 10:48:31;;;;;;;3.10;1.10;;;24.20;99.90;;;;;;5047260;28;20440;-73
2023/09/19 10:51:09;;;;;;;1.77;1.10;;;24.80;99.90;;;;;;5048811;28;20418;-73
2023/09/19 10:54:13;;;;;;;3.53;1.10;;;25.50;98.50;;;;;;5049074;28;20432;-73
2023/09/19 10:56:45;;;;;;;3.30;1.33;;;25.60;99.60;;;;;;5047379;28;20498;-74
2023/09/19 10:59:13;;;;;;;2.23;1.23;;;25.70;99.90;;;;;;5048661;28;20415;-73
2023/09/19 11:01:47;;;;;;;5.43;1.43;;;26.00;97.20;;;;;;5047123;28;20502;-73
2023/09/19 11:04:36;;;;;;;3.67;1.20;;;25.60;97.10;;;;;;5046830;28;20446;-73
2023/09/19 11:07:10;;;;;;;1.40;1.30;;;25.90;98.40;;;;;;5047109;28;20846;-74
2023/09/19 11:09:46;;;;;;;1.40;1.13;;;25.90;96.00;;;;;;5047082;28;21318;-73
2023/09/19 11:12:45;;;;;;;1.20;1.10;;;25.50;97.70;;;;;;5046955;28;20431;-73
2023/09/19 11:15:49;;;;;;;2.00;1.40;;;25.50;96.20;;;;;;5034946;28;20538;-75
2023/09/19 11:18:40;;;;;;;3.30;0.90;;;25.30;96.50;;;;;;5048079;28;20469;-73
2023/09/19 11:21:33;;;;;;;2.83;1.20;;;25.00;96.30;;;;;;5048262;28;20989;-73
2023/09/19 11:24:22;;;;;;;1.97;1.10;;;24.90;97.20;;;;;;5047854;28;20825;-73
2023/09/19 11:26:48;;;;;;;1.40;1.17;;;24.90;97.20;;;;;;5047271;28;20416;-73
2023/09/19 11:29:26;;;;;;;1.37;1.10;;;24.90;96.30;;;;;;5047366;28;20421;-73
2023/09/19 11:31:55;;;;;;;3.80;1.33;;;24.70;96.90;;;;;;5047260;28;20891;-74
2023/09/19 11:34:48;;;;;;;1.50;1.10;;;25.10;97.00;;;;;;5047398;28;20444;-73
2023/09/19 11:37:14;;;;;;;3.73;1.43;;;24.80;96.40;;;;;;5044894;28;20482;-75
2023/09/19 11:39:41;;;;;;;1.80;1.50;;;24.70;94.90;;;;;;5047752;28;20417;-72
2023/09/19 11:42:41;;;;;;;1.80;1.17;;;24.50;96.30;;;;;;5047950;28;20209;-73
2023/09/19 11:45:07;;;;;;;1.70;0.87;;;24.20;95.00;;;;;;5047575;28;20802;-74
2023/09/19 11:47:34;;;;;;;5.43;1.30;;;23.60;96.50;;;;;;5047720;28;20450;-73
2023/09/19 11:50:01;;;;;;;1.73;1.07;;;23.60;96.90;;;;;;5047732;28;20670;-73
2023/09/19 11:52:34;;;;;;;2.70;1.00;;;23.80;98.70;;;;;;5047790;28;20415;-73
2023/09/19 11:55:01;;;;;;;1.10;0.90;;;23.60;99.20;;;;;;5047582;28;20445;-74
2023/09/19 11:57:29;;;;;;;2.40;1.00;;;23.30;96.80;;;;;;5047417;28;20482;-73
2023/09/19 11:59:55;;;;;;;1.57;1.23;;;23.50;98.00;;;;;;5047265;28;20425;-75
2023/09/19 12:02:39;;;;;;;3.43;1.13;;;23.70;96.90;;;;;;5045910;28;20420;-73
2023/09/19 12:05:05;;;;;;;3.60;1.30;;;24.10;97.70;;;;;;5045465;28;20544;-74
2023/09/19 12:07:45;;;;;;;1.17;1.07;;;24.40;96.60;;;;;;5047473;28;20939;-73
2023/09/19 12:10:12;;;;;;;2.43;1.47;;;24.60;97.00;;;;;;5045849;28;20439;-74
2023/09/19 12:12:38;;;;;;;1.97;1.20;;;24.70;96.40;;;;;;5045895;28;20446;-73
2023/09/19 12:15:03;;;;;;;1.40;1.10;;;24.10;96.10;;;;;;5047390;28;20456;-73
2023/09/19 12:17:42;;;;;;;4.23;1.30;;;23.80;97.90;;;;;;5047388;28;20615;-73
2023/09/19 12:20:14;;;;;;;3.33;1.23;;;24.10;97.90;;;;;;5047238;28;20454;-72
2023/09/19 12:22:43;;;;;;;3.03;1.20;;;24.00;98.80;;;;;;5047333;28;20420;-73
2023/09/19 12:25:11;;;;;;;1.23;0.80;;;23.60;97.90;;;;;;5047191;28;20472;-74
2023/09/19 12:27:52;;;;;;;2.00;1.00;;;24.00;98.80;;;;;;5046318;28;20971;-73
2023/09/19 12:30:20;;;;;;;2.67;0.90;;;24.40;96.30;;;;;;5045360;28;20429;-72
2023/09/19 12:32:48;;;;;;;1.67;1.07;;;24.60;96.90;;;;;;5046862;28;20422;-72
2023/09/19 12:35:28;;;;;;;2.60;0.90;;;24.20;97.00;;;;;;5046638;28;20439;-72
2023/09/19 12:37:55;;;;;;;2.20;1.07;;;24.00;98.40;;;;;;5046484;28;20478;-72
2023/09/19 12:40:28;;;;;;;2.90;1.10;;;24.10;98.30;;;;;;5050299;28;20422;-72
2023/09/19 12:43:02;;;;;;;1.30;0.83;;;24.10;97.70;;;;;;5049390;28;21125;-72
2023/09/19 12:45:30;;;;;;;3.50;1.20;;;24.00;97.70;;;;;;5050547;28;20882;-73
2023/09/19 12:48:22;;;;;;;1.57;1.07;;;23.80;98.00;;;;;;5050431;28;20931;-72
2023/09/19 12:51:05;;;;;;;1.20;0.93;;;24.10;96.90;;;;;;5050478;28;20431;-73
2023/09/19 12:53:43;;;;;;;1.77;0.97;;;24.20;95.70;;;;;;5050608;28;20452;-72
2023/09/19 12:56:14;;;;;;;3.07;1.30;;;23.90;95.50;;;;;;5050304;28;20458;-73
2023/09/19 12:58:55;;;;;;;1.87;1.13;;;24.10;98.40;;;;;;5050376;28;20431;-72
2023/09/19 13:01:31;;;;;;;2.70;1.07;;;24.60;97.20;;;;;;5048551;28;20453;-72
2023/09/19 13:04:19;;;;;;;2.80;1.00;;;24.90;97.40;;;;;;5050297;28;20439;-72
2023/09/19 13:06:51;;;;;;;1.97;1.00;;;24.60;94.50;;;;;;5050622;28;20520;-73
2023/09/19 13:09:20;;;;;;;1.67;1.00;;;24.40;95.40;;;;;;5050890;28;20430;-73